sensor_id;sensor_type;location;lat;lon;timestamp;P1;durP1;ratioP1;P2;durP2;ratioP2
14756;SDS011;62446;53.214;10.398;2022-08-16T00:00:31;11.43;;;10.40;;
14756;SDS011;62446;53.214;10.398;2022-08-16T00:03:40;10.87;;;9.87;;
14756;SDS011;62446;53.214;10.398;2022-08-16T00:06:44;10.67;;;9.67;;
14756;SDS011;62446;53.214;10.398;2022-08-16T00:09:47;10.37;;;9.47;;
14756;SDS011;62446;53.214;10.398;2022-08-16T00:12:53;10.47;;;9.67;;
14756;SDS011;62446;53.214;10.398;2022-08-16T00:16:01;10.83;;;9.93;;
14756;SDS011;62446;53.214;10.398;2022-08-16T00:19:27;10.80;;;9.90;;
14756;SDS011;62446;53.214;10.398;2022-08-16T00:22:43;10.33;;;9.33;;
14756;SDS011;62446;53.214;10.398;2022-08-16T00:25:47;9.57;;;8.77;;
14756;SDS011;62446;53.214;10.398;2022-08-16T00:29:12;9.90;;;9.00;;
14756;SDS011;62446;53.214;10.398;2022-08-16T00:32:18;9.80;;;9.00;;
14756;SDS011;62446;53.214;10.398;2022-08-16T00:35:24;10.73;;;9.83;;
14756;SDS011;62446;53.214;10.398;2022-08-16T00:38:30;10.67;;;9.77;;
14756;SDS011;62446;53.214;10.398;2022-08-16T00:41:45;11.30;;;10.30;;
14756;SDS011;62446;53.214;10.398;2022-08-16T00:44:53;10.90;;;10.00;;
14756;SDS011;62446;53.214;10.398;2022-08-16T00:48:00;10.90;;;9.90;;
14756;SDS011;62446;53.214;10.398;2022-08-16T00:51:26;11.40;;;10.40;;
14756;SDS011;62446;53.214;10.398;2022-08-16T00:54:30;10.53;;;9.53;;
14756;SDS011;62446;53.214;10.398;2022-08-16T00:57:34;10.83;;;9.83;;
14756;SDS011;62446;53.214;10.398;2022-08-16T01:00:59;10.13;;;9.33;;
14756;SDS011;62446;53.214;10.398;2022-08-16T01:04:05;10.83;;;9.93;;
14756;SDS011;62446;53.214;10.398;2022-08-16T01:07:30;10.03;;;9.03;;
14756;SDS011;62446;53.214;10.398;2022-08-16T01:10:53;10.30;;;9.50;;
14756;SDS011;62446;53.214;10.398;2022-08-16T01:14:02;10.77;;;9.83;;
14756;SDS011;62446;53.214;10.398;2022-08-16T01:17:12;11.40;;;10.27;;
14756;SDS011;62446;53.214;10.398;2022-08-16T01:20:19;10.93;;;10.03;;
14756;SDS011;62446;53.214;10.398;2022-08-16T01:23:34;10.33;;;9.53;;
14756;SDS011;62446;53.214;10.398;2022-08-16T01:27:04;10.83;;;9.93;;
14756;SDS011;62446;53.214;10.398;2022-08-16T01:30:13;11.80;;;10.80;;
14756;SDS011;62446;53.214;10.398;2022-08-16T01:33:26;11.23;;;10.23;;
14756;SDS011;62446;53.214;10.398;2022-08-16T01:36:37;11.57;;;10.57;;
14756;SDS011;62446;53.214;10.398;2022-08-16T01:39:42;11.87;;;10.80;;
14756;SDS011;62446;53.214;10.398;2022-08-16T01:42:48;11.30;;;10.43;;
14756;SDS011;62446;53.214;10.398;2022-08-16T01:45:56;12.10;;;11.10;;
14756;SDS011;62446;53.214;10.398;2022-08-16T01:49:23;11.87;;;10.87;;
14756;SDS011;62446;53.214;10.398;2022-08-16T01:52:49;13.47;;;12.27;;
14756;SDS011;62446;53.214;10.398;2022-08-16T01:56:04;13.27;;;11.97;;
14756;SDS011;62446;53.214;10.398;2022-08-16T01:59:26;13.07;;;11.97;;
14756;SDS011;62446;53.214;10.398;2022-08-16T02:02:31;12.73;;;11.57;;
14756;SDS011;62446;53.214;10.398;2022-08-16T02:05:43;11.70;;;10.70;;
14756;SDS011;62446;53.214;10.398;2022-08-16T02:08:53;12.27;;;11.17;;
14756;SDS011;62446;53.214;10.398;2022-08-16T02:11:57;11.87;;;10.77;;
14756;SDS011;62446;53.214;10.398;2022-08-16T02:15:24;10.90;;;10.00;;
14756;SDS011;62446;53.214;10.398;2022-08-16T02:18:30;10.90;;;10.00;;
14756;SDS011;62446;53.214;10.398;2022-08-16T02:21:36;10.57;;;9.77;;
14756;SDS011;62446;53.214;10.398;2022-08-16T02:24:59;12.40;;;11.30;;
14756;SDS011;62446;53.214;10.398;2022-08-16T02:28:04;11.37;;;10.37;;
14756;SDS011;62446;53.214;10.398;2022-08-16T02:31:12;11.13;;;10.23;;
14756;SDS011;62446;53.214;10.398;2022-08-16T02:34:17;11.93;;;10.93;;
14756;SDS011;62446;53.214;10.398;2022-08-16T02:37:41;12.80;;;11.70;;
14756;SDS011;62446;53.214;10.398;2022-08-16T02:40:55;12.70;;;11.43;;
14756;SDS011;62446;53.214;10.398;2022-08-16T02:44:01;13.77;;;12.57;;
14756;SDS011;62446;53.214;10.398;2022-08-16T02:47:07;13.50;;;12.23;;
14756;SDS011;62446;53.214;10.398;2022-08-16T02:50:11;13.20;;;12.10;;
14756;SDS011;62446;53.214;10.398;2022-08-16T02:53:35;12.57;;;11.57;;
14756;SDS011;62446;53.214;10.398;2022-08-16T02:56:44;11.70;;;10.70;;
14756;SDS011;62446;53.214;10.398;2022-08-16T02:59:49;11.53;;;10.53;;
14756;SDS011;62446;53.214;10.398;2022-08-16T03:02:55;12.70;;;11.60;;
14756;SDS011;62446;53.214;10.398;2022-08-16T03:05:59;11.80;;;10.80;;
14756;SDS011;62446;53.214;10.398;2022-08-16T03:09:25;12.70;;;11.60;;
14756;SDS011;62446;53.214;10.398;2022-08-16T03:12:33;12.83;;;11.67;;
14756;SDS011;62446;53.214;10.398;2022-08-16T03:15:39;11.80;;;10.80;;
14756;SDS011;62446;53.214;10.398;2022-08-16T03:18:45;13.17;;;12.07;;
14756;SDS011;62446;53.214;10.398;2022-08-16T03:21:52;13.33;;;12.17;;
14756;SDS011;62446;53.214;10.398;2022-08-16T03:24:56;13.50;;;12.33;;
14756;SDS011;62446;53.214;10.398;2022-08-16T03:28:04;13.50;;;12.23;;
14756;SDS011;62446;53.214;10.398;2022-08-16T03:31:09;13.17;;;12.07;;
14756;SDS011;62446;53.214;10.398;2022-08-16T03:34:17;13.03;;;11.93;;
14756;SDS011;62446;53.214;10.398;2022-08-16T03:37:22;12.90;;;11.70;;
14756;SDS011;62446;53.214;10.398;2022-08-16T03:40:26;12.57;;;11.47;;
14756;SDS011;62446;53.214;10.398;2022-08-16T03:43:34;12.53;;;11.53;;
14756;SDS011;62446;53.214;10.398;2022-08-16T03:46:54;12.23;;;11.20;;
14756;SDS011;62446;53.214;10.398;2022-08-16T03:50:08;12.83;;;11.73;;
14756;SDS011;62446;53.214;10.398;2022-08-16T03:53:28;13.20;;;12.10;;
14756;SDS011;62446;53.214;10.398;2022-08-16T03:56:40;13.60;;;12.30;;
14756;SDS011;62446;53.214;10.398;2022-08-16T04:00:05;13.60;;;12.40;;
14756;SDS011;62446;53.214;10.398;2022-08-16T04:03:37;14.60;;;13.33;;
14756;SDS011;62446;53.214;10.398;2022-08-16T04:06:44;13.80;;;12.60;;
14756;SDS011;62446;53.214;10.398;2022-08-16T04:09:48;14.60;;;13.30;;
14756;SDS011;62446;53.214;10.398;2022-08-16T04:12:54;15.10;;;13.80;;
14756;SDS011;62446;53.214;10.398;2022-08-16T04:16:05;14.23;;;12.83;;
14756;SDS011;62446;53.214;10.398;2022-08-16T04:19:10;14.67;;;13.37;;
14756;SDS011;62446;53.214;10.398;2022-08-16T04:22:17;14.47;;;13.27;;
14756;SDS011;62446;53.214;10.398;2022-08-16T04:25:31;15.43;;;14.03;;
14756;SDS011;62446;53.214;10.398;2022-08-16T04:28:35;15.73;;;14.20;;
14756;SDS011;62446;53.214;10.398;2022-08-16T04:31:59;15.33;;;14.00;;
14756;SDS011;62446;53.214;10.398;2022-08-16T04:35:08;14.40;;;13.07;;
14756;SDS011;62446;53.214;10.398;2022-08-16T04:38:19;14.80;;;13.40;;
14756;SDS011;62446;53.214;10.398;2022-08-16T04:41:26;14.87;;;13.57;;
14756;SDS011;62446;53.214;10.398;2022-08-16T04:44:41;15.37;;;13.97;;
14756;SDS011;62446;53.214;10.398;2022-08-16T04:48:21;15.03;;;13.70;;
14756;SDS011;62446;53.214;10.398;2022-08-16T04:51:37;14.80;;;13.53;;
14756;SDS011;62446;53.214;10.398;2022-08-16T04:54:44;14.60;;;13.20;;
14756;SDS011;62446;53.214;10.398;2022-08-16T04:57:49;14.80;;;13.47;;
14756;SDS011;62446;53.214;10.398;2022-08-16T05:00:56;15.37;;;14.07;;
14756;SDS011;62446;53.214;10.398;2022-08-16T05:04:00;15.67;;;14.37;;
14756;SDS011;62446;53.214;10.398;2022-08-16T05:07:10;15.00;;;13.60;;
14756;SDS011;62446;53.214;10.398;2022-08-16T05:10:48;15.60;;;14.20;;
14756;SDS011;62446;53.214;10.398;2022-08-16T05:13:52;15.13;;;13.77;;
14756;SDS011;62446;53.214;10.398;2022-08-16T05:17:09;15.27;;;13.93;;
14756;SDS011;62446;53.214;10.398;2022-08-16T05:20:13;15.13;;;13.83;;
14756;SDS011;62446;53.214;10.398;2022-08-16T05:23:38;15.00;;;13.70;;
14756;SDS011;62446;53.214;10.398;2022-08-16T05:26:43;15.63;;;14.23;;
14756;SDS011;62446;53.214;10.398;2022-08-16T05:29:53;15.80;;;14.33;;
14756;SDS011;62446;53.214;10.398;2022-08-16T05:33:01;15.93;;;14.43;;
14756;SDS011;62446;53.214;10.398;2022-08-16T05:36:05;15.77;;;14.37;;
14756;SDS011;62446;53.214;10.398;2022-08-16T05:39:23;16.20;;;14.60;;
14756;SDS011;62446;53.214;10.398;2022-08-16T05:42:30;15.87;;;14.40;;
14756;SDS011;62446;53.214;10.398;2022-08-16T05:45:38;16.23;;;14.73;;
14756;SDS011;62446;53.214;10.398;2022-08-16T05:48:44;16.20;;;14.73;;
14756;SDS011;62446;53.214;10.398;2022-08-16T05:52:01;18.23;;;16.60;;
14756;SDS011;62446;53.214;10.398;2022-08-16T05:55:12;16.70;;;15.20;;
14756;SDS011;62446;53.214;10.398;2022-08-16T05:58:18;15.83;;;14.30;;
14756;SDS011;62446;53.214;10.398;2022-08-16T06:01:36;14.10;;;12.80;;
14756;SDS011;62446;53.214;10.398;2022-08-16T06:04:41;13.37;;;12.27;;
14756;SDS011;62446;53.214;10.398;2022-08-16T06:07:51;13.17;;;11.93;;
14756;SDS011;62446;53.214;10.398;2022-08-16T06:11:07;12.10;;;10.97;;
14756;SDS011;62446;53.214;10.398;2022-08-16T06:14:16;12.03;;;11.03;;
14756;SDS011;62446;53.214;10.398;2022-08-16T06:17:21;11.53;;;10.53;;
14756;SDS011;62446;53.214;10.398;2022-08-16T06:20:43;10.70;;;9.80;;
14756;SDS011;62446;53.214;10.398;2022-08-16T06:23:58;11.20;;;10.30;;
14756;SDS011;62446;53.214;10.398;2022-08-16T06:27:23;10.77;;;9.87;;
14756;SDS011;62446;53.214;10.398;2022-08-16T06:30:42;11.53;;;10.53;;
14756;SDS011;62446;53.214;10.398;2022-08-16T06:33:50;10.37;;;9.47;;
14756;SDS011;62446;53.214;10.398;2022-08-16T06:36:55;10.80;;;9.77;;
14756;SDS011;62446;53.214;10.398;2022-08-16T06:40:02;10.70;;;9.70;;
14756;SDS011;62446;53.214;10.398;2022-08-16T06:43:19;10.80;;;9.80;;
14756;SDS011;62446;53.214;10.398;2022-08-16T06:46:36;10.07;;;9.17;;
14756;SDS011;62446;53.214;10.398;2022-08-16T06:49:49;10.80;;;9.90;;
14756;SDS011;62446;53.214;10.398;2022-08-16T06:53:00;10.80;;;9.80;;
14756;SDS011;62446;53.214;10.398;2022-08-16T06:56:12;11.00;;;10.10;;
14756;SDS011;62446;53.214;10.398;2022-08-16T06:59:43;10.27;;;9.37;;
14756;SDS011;62446;53.214;10.398;2022-08-16T07:03:08;9.97;;;9.17;;
14756;SDS011;62446;53.214;10.398;2022-08-16T07:06:30;10.53;;;9.40;;
14756;SDS011;62446;53.214;10.398;2022-08-16T07:09:40;9.97;;;9.17;;
14756;SDS011;62446;53.214;10.398;2022-08-16T07:12:44;10.37;;;9.40;;
14756;SDS011;62446;53.214;10.398;2022-08-16T07:16:13;10.23;;;9.33;;
14756;SDS011;62446;53.214;10.398;2022-08-16T07:19:24;9.57;;;8.77;;
14756;SDS011;62446;53.214;10.398;2022-08-16T07:22:48;9.63;;;8.77;;
14756;SDS011;62446;53.214;10.398;2022-08-16T07:26:10;9.83;;;9.03;;
14756;SDS011;62446;53.214;10.398;2022-08-16T07:29:27;9.70;;;8.90;;
14756;SDS011;62446;53.214;10.398;2022-08-16T07:32:34;9.90;;;9.00;;
14756;SDS011;62446;53.214;10.398;2022-08-16T07:35:42;10.10;;;9.10;;
14756;SDS011;62446;53.214;10.398;2022-08-16T07:38:54;10.40;;;9.50;;
14756;SDS011;62446;53.214;10.398;2022-08-16T07:41:59;9.87;;;9.07;;
14756;SDS011;62446;53.214;10.398;2022-08-16T07:45:08;9.20;;;8.40;;
14756;SDS011;62446;53.214;10.398;2022-08-16T07:48:19;9.93;;;9.13;;
14756;SDS011;62446;53.214;10.398;2022-08-16T07:51:29;9.13;;;8.23;;
14756;SDS011;62446;53.214;10.398;2022-08-16T07:54:40;9.20;;;8.40;;
14756;SDS011;62446;53.214;10.398;2022-08-16T07:57:50;9.33;;;8.53;;
14756;SDS011;62446;53.214;10.398;2022-08-16T08:01:08;9.57;;;8.80;;
14756;SDS011;62446;53.214;10.398;2022-08-16T08:04:26;9.27;;;8.47;;
14756;SDS011;62446;53.214;10.398;2022-08-16T08:07:36;8.60;;;7.90;;
14756;SDS011;62446;53.214;10.398;2022-08-16T08:10:47;8.97;;;8.23;;
14756;SDS011;62446;53.214;10.398;2022-08-16T08:13:53;8.90;;;8.10;;
14756;SDS011;62446;53.214;10.398;2022-08-16T08:16:58;8.80;;;8.00;;
14756;SDS011;62446;53.214;10.398;2022-08-16T08:20:08;9.03;;;8.17;;
14756;SDS011;62446;53.214;10.398;2022-08-16T08:23:26;8.97;;;8.27;;
14756;SDS011;62446;53.214;10.398;2022-08-16T08:26:31;8.90;;;8.00;;
14756;SDS011;62446;53.214;10.398;2022-08-16T08:29:35;9.30;;;8.60;;
14756;SDS011;62446;53.214;10.398;2022-08-16T08:32:44;8.63;;;7.90;;
14756;SDS011;62446;53.214;10.398;2022-08-16T08:36:07;9.20;;;8.30;;
14756;SDS011;62446;53.214;10.398;2022-08-16T08:39:26;8.50;;;7.80;;
14756;SDS011;62446;53.214;10.398;2022-08-16T08:42:30;8.67;;;7.90;;
14756;SDS011;62446;53.214;10.398;2022-08-16T08:45:34;8.80;;;7.90;;
14756;SDS011;62446;53.214;10.398;2022-08-16T08:48:51;8.83;;;8.10;;
14756;SDS011;62446;53.214;10.398;2022-08-16T08:52:06;8.47;;;7.63;;
14756;SDS011;62446;53.214;10.398;2022-08-16T08:55:12;9.03;;;8.23;;
14756;SDS011;62446;53.214;10.398;2022-08-16T08:58:17;8.80;;;8.10;;
14756;SDS011;62446;53.214;10.398;2022-08-16T09:01:34;8.67;;;7.97;;
14756;SDS011;62446;53.214;10.398;2022-08-16T09:04:58;8.33;;;7.70;;
14756;SDS011;62446;53.214;10.398;2022-08-16T09:08:16;8.30;;;7.60;;
14756;SDS011;62446;53.214;10.398;2022-08-16T09:11:32;7.90;;;7.30;;
14756;SDS011;62446;53.214;10.398;2022-08-16T09:14:43;8.20;;;7.50;;
14756;SDS011;62446;53.214;10.398;2022-08-16T09:17:55;8.30;;;7.50;;
14756;SDS011;62446;53.214;10.398;2022-08-16T09:21:01;7.97;;;7.37;;
14756;SDS011;62446;53.214;10.398;2022-08-16T09:24:10;8.57;;;7.87;;
14756;SDS011;62446;53.214;10.398;2022-08-16T09:27:36;8.73;;;8.03;;
14756;SDS011;62446;53.214;10.398;2022-08-16T09:31:01;7.83;;;7.23;;
14756;SDS011;62446;53.214;10.398;2022-08-16T09:34:04;8.40;;;7.80;;
14756;SDS011;62446;53.214;10.398;2022-08-16T09:37:08;8.80;;;8.10;;
14756;SDS011;62446;53.214;10.398;2022-08-16T09:40:20;8.40;;;7.70;;
14756;SDS011;62446;53.214;10.398;2022-08-16T09:43:44;8.53;;;7.83;;
14756;SDS011;62446;53.214;10.398;2022-08-16T09:47:03;8.30;;;7.60;;
14756;SDS011;62446;53.214;10.398;2022-08-16T09:50:11;7.73;;;7.13;;
14756;SDS011;62446;53.214;10.398;2022-08-16T09:53:24;8.33;;;7.63;;
14756;SDS011;62446;53.214;10.398;2022-08-16T09:56:30;8.40;;;7.70;;
14756;SDS011;62446;53.214;10.398;2022-08-16T09:59:37;8.83;;;8.13;;
14756;SDS011;62446;53.214;10.398;2022-08-16T10:02:43;8.07;;;7.47;;
14756;SDS011;62446;53.214;10.398;2022-08-16T10:05:49;8.57;;;7.87;;
14756;SDS011;62446;53.214;10.398;2022-08-16T10:08:53;8.33;;;7.63;;
14756;SDS011;62446;53.214;10.398;2022-08-16T10:12:08;7.60;;;7.00;;
14756;SDS011;62446;53.214;10.398;2022-08-16T10:15:31;8.17;;;7.57;;
14756;SDS011;62446;53.214;10.398;2022-08-16T10:18:35;8.30;;;7.60;;
14756;SDS011;62446;53.214;10.398;2022-08-16T10:21:59;7.97;;;7.37;;
14756;SDS011;62446;53.214;10.398;2022-08-16T10:25:06;7.70;;;7.10;;
14756;SDS011;62446;53.214;10.398;2022-08-16T10:28:31;8.13;;;7.43;;
14756;SDS011;62446;53.214;10.398;2022-08-16T10:31:44;7.97;;;7.37;;
14756;SDS011;62446;53.214;10.398;2022-08-16T10:34:55;7.63;;;7.13;;
14756;SDS011;62446;53.214;10.398;2022-08-16T10:37:58;7.80;;;7.20;;
14756;SDS011;62446;53.214;10.398;2022-08-16T10:41:08;7.80;;;7.20;;
14756;SDS011;62446;53.214;10.398;2022-08-16T10:44:17;7.90;;;7.20;;
14756;SDS011;62446;53.214;10.398;2022-08-16T10:47:23;7.90;;;7.30;;
14756;SDS011;62446;53.214;10.398;2022-08-16T10:50:29;7.80;;;7.20;;
14756;SDS011;62446;53.214;10.398;2022-08-16T10:53:34;7.60;;;7.00;;
14756;SDS011;62446;53.214;10.398;2022-08-16T10:56:40;7.47;;;6.87;;
14756;SDS011;62446;53.214;10.398;2022-08-16T10:59:57;7.80;;;7.20;;
14756;SDS011;62446;53.214;10.398;2022-08-16T11:03:03;7.73;;;7.13;;
14756;SDS011;62446;53.214;10.398;2022-08-16T11:06:27;7.80;;;7.20;;
14756;SDS011;62446;53.214;10.398;2022-08-16T11:09:32;7.53;;;6.93;;
14756;SDS011;62446;53.214;10.398;2022-08-16T11:12:45;7.90;;;7.30;;
14756;SDS011;62446;53.214;10.398;2022-08-16T11:15:54;7.80;;;7.20;;
14756;SDS011;62446;53.214;10.398;2022-08-16T11:19:00;8.17;;;7.47;;
14756;SDS011;62446;53.214;10.398;2022-08-16T11:22:14;7.67;;;7.07;;
14756;SDS011;62446;53.214;10.398;2022-08-16T11:25:38;7.50;;;6.90;;
14756;SDS011;62446;53.214;10.398;2022-08-16T11:29:03;7.80;;;7.20;;
14756;SDS011;62446;53.214;10.398;2022-08-16T11:32:16;7.60;;;7.00;;
14756;SDS011;62446;53.214;10.398;2022-08-16T11:35:25;7.47;;;6.87;;
14756;SDS011;62446;53.214;10.398;2022-08-16T11:38:51;7.87;;;7.27;;
14756;SDS011;62446;53.214;10.398;2022-08-16T11:41:59;7.37;;;6.77;;
14756;SDS011;62446;53.214;10.398;2022-08-16T11:45:17;7.87;;;7.23;;
14756;SDS011;62446;53.214;10.398;2022-08-16T11:48:22;8.07;;;7.47;;
14756;SDS011;62446;53.214;10.398;2022-08-16T11:51:28;7.43;;;6.83;;
14756;SDS011;62446;53.214;10.398;2022-08-16T11:54:32;8.30;;;7.60;;
14756;SDS011;62446;53.214;10.398;2022-08-16T11:57:38;7.83;;;7.17;;
14756;SDS011;62446;53.214;10.398;2022-08-16T12:00:45;7.83;;;7.23;;
14756;SDS011;62446;53.214;10.398;2022-08-16T12:03:54;8.00;;;7.40;;
14756;SDS011;62446;53.214;10.398;2022-08-16T12:06:59;7.90;;;7.30;;
14756;SDS011;62446;53.214;10.398;2022-08-16T12:10:05;8.30;;;7.60;;
14756;SDS011;62446;53.214;10.398;2022-08-16T12:13:13;7.77;;;7.17;;
14756;SDS011;62446;53.214;10.398;2022-08-16T12:16:17;8.03;;;7.43;;
14756;SDS011;62446;53.214;10.398;2022-08-16T12:19:22;8.07;;;7.37;;
14756;SDS011;62446;53.214;10.398;2022-08-16T12:22:37;7.77;;;7.17;;
14756;SDS011;62446;53.214;10.398;2022-08-16T12:25:42;8.23;;;7.53;;
14756;SDS011;62446;53.214;10.398;2022-08-16T12:28:46;7.70;;;7.10;;
14756;SDS011;62446;53.214;10.398;2022-08-16T12:31:57;7.73;;;7.13;;
14756;SDS011;62446;53.214;10.398;2022-08-16T12:35:21;8.20;;;7.50;;
14756;SDS011;62446;53.214;10.398;2022-08-16T12:38:28;8.00;;;7.40;;
14756;SDS011;62446;53.214;10.398;2022-08-16T12:41:49;7.67;;;7.07;;
14756;SDS011;62446;53.214;10.398;2022-08-16T12:44:53;8.13;;;7.43;;
14756;SDS011;62446;53.214;10.398;2022-08-16T12:47:57;7.70;;;7.10;;
14756;SDS011;62446;53.214;10.398;2022-08-16T12:51:37;8.23;;;7.60;;
14756;SDS011;62446;53.214;10.398;2022-08-16T12:55:03;8.10;;;7.50;;
14756;SDS011;62446;53.214;10.398;2022-08-16T12:58:09;7.23;;;6.73;;
14756;SDS011;62446;53.214;10.398;2022-08-16T13:01:33;7.40;;;6.90;;
14756;SDS011;62446;53.214;10.398;2022-08-16T13:04:38;8.30;;;7.60;;
14756;SDS011;62446;53.214;10.398;2022-08-16T13:07:43;8.00;;;7.40;;
14756;SDS011;62446;53.214;10.398;2022-08-16T13:10:55;8.10;;;7.50;;
14756;SDS011;62446;53.214;10.398;2022-08-16T13:13:59;7.90;;;7.30;;
14756;SDS011;62446;53.214;10.398;2022-08-16T13:17:07;7.83;;;7.13;;
14756;SDS011;62446;53.214;10.398;2022-08-16T13:20:22;7.70;;;7.10;;
14756;SDS011;62446;53.214;10.398;2022-08-16T13:23:29;7.60;;;6.90;;
14756;SDS011;62446;53.214;10.398;2022-08-16T13:26:35;7.60;;;6.90;;
14756;SDS011;62446;53.214;10.398;2022-08-16T13:29:38;7.87;;;7.27;;
14756;SDS011;62446;53.214;10.398;2022-08-16T13:32:45;7.77;;;7.17;;
14756;SDS011;62446;53.214;10.398;2022-08-16T13:35:53;6.87;;;6.37;;
14756;SDS011;62446;53.214;10.398;2022-08-16T13:39:04;7.57;;;6.97;;
14756;SDS011;62446;53.214;10.398;2022-08-16T13:42:10;7.97;;;7.30;;
14756;SDS011;62446;53.214;10.398;2022-08-16T13:45:15;7.60;;;7.00;;
14756;SDS011;62446;53.214;10.398;2022-08-16T13:48:21;7.63;;;7.03;;
14756;SDS011;62446;53.214;10.398;2022-08-16T13:51:26;7.53;;;6.73;;
14756;SDS011;62446;53.214;10.398;2022-08-16T13:54:32;8.07;;;7.37;;
14756;SDS011;62446;53.214;10.398;2022-08-16T13:57:37;8.00;;;7.40;;
14756;SDS011;62446;53.214;10.398;2022-08-16T14:01:01;8.77;;;7.97;;
14756;SDS011;62446;53.214;10.398;2022-08-16T14:04:10;7.83;;;7.23;;
14756;SDS011;62446;53.214;10.398;2022-08-16T14:07:27;8.00;;;7.40;;
14756;SDS011;62446;53.214;10.398;2022-08-16T14:10:31;8.27;;;7.57;;
14756;SDS011;62446;53.214;10.398;2022-08-16T14:13:36;8.03;;;7.33;;
14756;SDS011;62446;53.214;10.398;2022-08-16T14:16:40;8.00;;;7.30;;
14756;SDS011;62446;53.214;10.398;2022-08-16T14:19:44;8.37;;;7.67;;
14756;SDS011;62446;53.214;10.398;2022-08-16T14:22:49;8.20;;;7.40;;
14756;SDS011;62446;53.214;10.398;2022-08-16T14:25:56;8.03;;;7.33;;
14756;SDS011;62446;53.214;10.398;2022-08-16T14:29:02;7.83;;;7.13;;
14756;SDS011;62446;53.214;10.398;2022-08-16T14:32:09;8.50;;;7.70;;
14756;SDS011;62446;53.214;10.398;2022-08-16T14:35:29;7.77;;;7.07;;
14756;SDS011;62446;53.214;10.398;2022-08-16T14:38:52;8.03;;;7.33;;
14756;SDS011;62446;53.214;10.398;2022-08-16T14:42:01;8.00;;;7.20;;
14756;SDS011;62446;53.214;10.398;2022-08-16T14:45:11;7.87;;;7.20;;
14756;SDS011;62446;53.214;10.398;2022-08-16T14:48:18;6.93;;;6.33;;
14756;SDS011;62446;53.214;10.398;2022-08-16T14:51:27;7.37;;;6.77;;
14756;SDS011;62446;53.214;10.398;2022-08-16T14:54:31;7.60;;;6.80;;
14756;SDS011;62446;53.214;10.398;2022-08-16T14:57:35;7.43;;;6.77;;
14756;SDS011;62446;53.214;10.398;2022-08-16T15:00:42;7.47;;;6.77;;
14756;SDS011;62446;53.214;10.398;2022-08-16T15:03:48;7.30;;;6.63;;
14756;SDS011;62446;53.214;10.398;2022-08-16T15:06:56;7.87;;;7.17;;
14756;SDS011;62446;53.214;10.398;2022-08-16T15:10:01;7.30;;;6.60;;
14756;SDS011;62446;53.214;10.398;2022-08-16T15:13:08;7.27;;;6.67;;
14756;SDS011;62446;53.214;10.398;2022-08-16T15:16:14;7.03;;;6.43;;
14756;SDS011;62446;53.214;10.398;2022-08-16T15:19:19;7.33;;;6.63;;
14756;SDS011;62446;53.214;10.398;2022-08-16T15:22:25;7.87;;;6.60;;
14756;SDS011;62446;53.214;10.398;2022-08-16T15:25:33;7.53;;;6.90;;
14756;SDS011;62446;53.214;10.398;2022-08-16T15:28:42;7.07;;;6.50;;
14756;SDS011;62446;53.214;10.398;2022-08-16T15:31:48;7.60;;;7.00;;
14756;SDS011;62446;53.214;10.398;2022-08-16T15:35:02;8.00;;;7.30;;
14756;SDS011;62446;53.214;10.398;2022-08-16T15:38:07;7.90;;;7.20;;
14756;SDS011;62446;53.214;10.398;2022-08-16T15:41:53;8.47;;;7.77;;
14756;SDS011;62446;53.214;10.398;2022-08-16T15:45:03;7.80;;;7.10;;
14756;SDS011;62446;53.214;10.398;2022-08-16T15:48:14;8.70;;;7.83;;
14756;SDS011;62446;53.214;10.398;2022-08-16T15:51:29;8.60;;;7.80;;
14756;SDS011;62446;53.214;10.398;2022-08-16T15:54:36;8.23;;;7.50;;
14756;SDS011;62446;53.214;10.398;2022-08-16T15:57:56;7.97;;;7.27;;
14756;SDS011;62446;53.214;10.398;2022-08-16T16:01:00;8.40;;;7.70;;
14756;SDS011;62446;53.214;10.398;2022-08-16T16:04:06;8.50;;;7.70;;
14756;SDS011;62446;53.214;10.398;2022-08-16T16:07:11;8.70;;;8.00;;
14756;SDS011;62446;53.214;10.398;2022-08-16T16:10:15;7.83;;;7.23;;
14756;SDS011;62446;53.214;10.398;2022-08-16T16:13:20;8.60;;;7.50;;
14756;SDS011;62446;53.214;10.398;2022-08-16T16:16:24;8.13;;;7.43;;
14756;SDS011;62446;53.214;10.398;2022-08-16T16:19:30;7.30;;;6.70;;
14756;SDS011;62446;53.214;10.398;2022-08-16T16:22:34;8.10;;;7.40;;
14756;SDS011;62446;53.214;10.398;2022-08-16T16:25:38;7.87;;;7.27;;
14756;SDS011;62446;53.214;10.398;2022-08-16T16:28:45;7.50;;;6.90;;
14756;SDS011;62446;53.214;10.398;2022-08-16T16:32:09;7.33;;;6.63;;
14756;SDS011;62446;53.214;10.398;2022-08-16T16:35:17;7.87;;;7.27;;
14756;SDS011;62446;53.214;10.398;2022-08-16T16:38:26;7.43;;;6.83;;
14756;SDS011;62446;53.214;10.398;2022-08-16T16:41:32;8.23;;;7.50;;
14756;SDS011;62446;53.214;10.398;2022-08-16T16:44:37;8.07;;;7.37;;
14756;SDS011;62446;53.214;10.398;2022-08-16T16:47:51;7.57;;;6.87;;
14756;SDS011;62446;53.214;10.398;2022-08-16T16:50:57;7.87;;;7.03;;
14756;SDS011;62446;53.214;10.398;2022-08-16T16:54:03;7.80;;;7.17;;
14756;SDS011;62446;53.214;10.398;2022-08-16T16:57:07;7.77;;;7.07;;
14756;SDS011;62446;53.214;10.398;2022-08-16T17:00:31;7.77;;;7.07;;
14756;SDS011;62446;53.214;10.398;2022-08-16T17:03:40;7.63;;;6.93;;
14756;SDS011;62446;53.214;10.398;2022-08-16T17:06:55;8.00;;;7.30;;
14756;SDS011;62446;53.214;10.398;2022-08-16T17:10:00;8.20;;;7.47;;
14756;SDS011;62446;53.214;10.398;2022-08-16T17:13:06;7.67;;;7.07;;
14756;SDS011;62446;53.214;10.398;2022-08-16T17:16:10;7.87;;;7.17;;
14756;SDS011;62446;53.214;10.398;2022-08-16T17:19:20;8.43;;;7.63;;
14756;SDS011;62446;53.214;10.398;2022-08-16T17:22:26;8.03;;;7.30;;
14756;SDS011;62446;53.214;10.398;2022-08-16T17:25:50;7.80;;;7.10;;
14756;SDS011;62446;53.214;10.398;2022-08-16T17:28:54;7.40;;;6.77;;
14756;SDS011;62446;53.214;10.398;2022-08-16T17:32:03;7.47;;;6.73;;
14756;SDS011;62446;53.214;10.398;2022-08-16T17:35:32;7.60;;;6.90;;
14756;SDS011;62446;53.214;10.398;2022-08-16T17:38:39;7.57;;;6.97;;
14756;SDS011;62446;53.214;10.398;2022-08-16T17:41:47;8.13;;;7.43;;
14756;SDS011;62446;53.214;10.398;2022-08-16T17:44:51;7.53;;;6.93;;
14756;SDS011;62446;53.214;10.398;2022-08-16T17:47:56;7.20;;;6.60;;
14756;SDS011;62446;53.214;10.398;2022-08-16T17:51:00;7.73;;;7.00;;
14756;SDS011;62446;53.214;10.398;2022-08-16T17:54:06;7.27;;;6.67;;
14756;SDS011;62446;53.214;10.398;2022-08-16T17:57:21;7.70;;;7.10;;
14756;SDS011;62446;53.214;10.398;2022-08-16T18:00:25;7.00;;;6.50;;
14756;SDS011;62446;53.214;10.398;2022-08-16T18:03:31;7.17;;;6.57;;
14756;SDS011;62446;53.214;10.398;2022-08-16T18:06:58;6.97;;;6.47;;
14756;SDS011;62446;53.214;10.398;2022-08-16T18:10:03;6.80;;;6.20;;
14756;SDS011;62446;53.214;10.398;2022-08-16T18:13:08;7.07;;;6.47;;
14756;SDS011;62446;53.214;10.398;2022-08-16T18:16:13;7.17;;;6.50;;
14756;SDS011;62446;53.214;10.398;2022-08-16T18:19:18;7.43;;;6.83;;
14756;SDS011;62446;53.214;10.398;2022-08-16T18:22:22;7.50;;;6.90;;
14756;SDS011;62446;53.214;10.398;2022-08-16T18:25:33;7.50;;;6.80;;
14756;SDS011;62446;53.214;10.398;2022-08-16T18:28:37;7.00;;;6.50;;
14756;SDS011;62446;53.214;10.398;2022-08-16T18:31:41;7.43;;;6.83;;
14756;SDS011;62446;53.214;10.398;2022-08-16T18:34:45;7.20;;;6.60;;
14756;SDS011;62446;53.214;10.398;2022-08-16T18:37:48;6.90;;;6.40;;
14756;SDS011;62446;53.214;10.398;2022-08-16T18:40:54;7.30;;;6.70;;